ADDS METAR Data INFO
IDs: Format: Raw Decoded Include TAF

Data at: 1504 UTC 11 Dec 2017

KVPZ 111456Z AUTO 18011KT 7SM OVC060 M01/M06 A2993 RMK AO2 SLP145 T10111056 58028 $
KVPZ 111356Z AUTO 19007KT 7SM OVC070 M02/M06 A2998 RMK AO2 SLP162 T10221056 $
KVPZ 111256Z AUTO 17007KT 8SM SCT075 BKN090 OVC100 M02/M06 A2998 RMK AO2 SLP159 T10221061 $
KVPZ 111156Z AUTO 17004KT 8SM OVC075 M03/M07 A3002 RMK AO2 SLP174 T10281067 11011 21050 56006 $
KVPZ 111056Z AUTO 00000KT 8SM OVC090 M03/M07 A3002 RMK AO2 SLP175 T10331067 $
KVPZ 110956Z AUTO 20005KT 9SM CLR M04/M07 A3003 RMK AO2 SLP177 T10441072 $
KVPZ 110856Z AUTO 00000KT 10SM CLR M04/M08 A3004 RMK AO2 SLP180 T10441078 58012 $
KVPZ 110828Z AUTO 00000KT 10SM SCT025 M03/M07 A3004 RMK AO2 T10331072 $
KVPZ 110756Z AUTO 23005KT 10SM OVC026 M03/M07 A3006 RMK AO2 SLP188 T10281072 $
KVPZ 110656Z AUTO 24004KT 10SM OVC026 M02/M06 A3006 RMK AO2 SLP188 T10221061 $
KVPZ 110556Z AUTO 26004KT 10SM OVC024 M01/M06 A3007 RMK AO2 SLP192 T10111056 10006 21011 400281089 51004 $
KVPZ 110456Z AUTO 30005KT 10SM OVC025 M01/M06 A3007 RMK AO2 SLP191 T10061056 $
KVPZ 110356Z AUTO 32005KT 10SM OVC025 M01/M06 A3007 RMK AO2 SLP192 T10061061 $
KVPZ 110256Z AUTO 32007KT 10SM OVC025 00/M06 A3006 RMK AO2 SLP188 T00001056 53018 $
KVPZ 110156Z AUTO 31009KT 10SM OVC025 00/M06 A3004 RMK AO2 SLP182 T00001056 $
KVPZ 110056Z AUTO 32008KT 10SM OVC026 00/M05 A3002 RMK AO2 SLP175 T00001050 $
KVPZ 110039Z AUTO 31009KT 10SM BKN026 OVC031 00/M05 A3003 RMK AO2 T00001050 $
KVPZ 110020Z AUTO 31009KT 10SM OVC030 01/M05 A3002 RMK AO2 T00061050 $
KVPZ 102356Z AUTO 33007KT 10SM OVC027 01/M05 A3000 RMK AO2 SLP170 T00061050 10028 20006 51031 $
KVPZ 102331Z AUTO 32009KT 10SM BKN027 OVC035 01/M05 A2999 RMK AO2 T00061050 $
KVPZ 102256Z AUTO 30007KT 10SM OVC034 01/M05 A2998 RMK AO2 SLP161 T00061050 $
KVPZ 102156Z AUTO 33006KT 10SM OVC034 01/M05 A2994 RMK AO2 SLP149 T00111050 $
KVPZ 102056Z AUTO 30009KT 10SM OVC035 02/M05 A2991 RMK AO2 SLP137 T00221050 53008 $
KVPZ 101956Z AUTO 26013KT 10SM CLR 02/M06 A2988 RMK AO2 SLP127 T00221056 $
KVPZ 101856Z AUTO 25013G20KT 10SM BKN034 02/M06 A2987 RMK AO2 SLP125 T00171056 $
KVPZ 101756Z AUTO 23012KT 10SM BKN033 01/M06 A2989 RMK AO2 SLP129 T00061056 10006 21061 58023 $
KVPZ 101656Z AUTO 21015KT 10SM CLR M01/M07 A2991 RMK AO2 SLP139 T10111067 $
KVPZ 101556Z AUTO 21011KT 10SM BKN110 M03/M07 A2993 RMK AO2 SLP144 T10281072 $
KVPZ 101456Z AUTO 22016G20KT 10SM FEW090 OVC120 M04/M08 A2995 RMK AO2 SLP153 T10391078 58010 $
KVPZ 101356Z AUTO 20011KT 10SM OVC090 M05/M08 A2997 RMK AO2 SLP160 T10501083 $
KVPZ 101256Z AUTO 21008KT 10SM FEW060 OVC095 M06/M09 A2998 RMK AO2 SLP164 T10561089 $
KVPZ 101156Z AUTO 20009KT 10SM OVC055 M06/M09 A2998 RMK AO2 SLP164 70001 T10611094 11061 21089 56015 $
KVPZ 101056Z AUTO 22008KT 10SM OVC090 M07/M10 A2999 RMK AO2 SLP165 T10721100 $
KVPZ 100956Z AUTO 21007KT 10SM CLR M08/M11 A3000 RMK AO2 SLP170 T10831111 $
KVPZ 100856Z AUTO 22006KT 10SM CLR M08/M11 A3003 RMK AO2 SLP179 T10831111 56010 $
KVPZ 100756Z AUTO 22006KT 10SM CLR M08/M12 A3004 RMK AO2 SLP182 T10831117 $
KVPZ 100656Z AUTO 22004KT 10SM CLR M08/M11 A3004 RMK AO2 SLP184 T10781111 $
KVPZ 100556Z AUTO 25007KT 10SM CLR M07/M11 A3006 RMK AO2 SLP189 T10671111 11011 21078 400001078 51001 $
KVPZ 100456Z AUTO 27009KT 10SM FEW025 M06/M11 A3006 RMK AO2 SLP189 T10611111 $
KVPZ 100454Z AUTO 27009KT 10SM SCT025 M06/M11 A3006 RMK AO2 $
KVPZ 100356Z AUTO 27012KT 10SM OVC025 M03/M08 A3005 RMK AO2 SLP187 T10331083 $